Time;durP1;ratioP1;P1;durP2;ratioP2;P2;SDS_P1;SDS_P2;PMS_P1;PMS_P2;Temp;Humidity;BMP_temperature;BMP_pressure;BME280_temperature;BME280_humidity;BME280_pressure;Samples;Min_cycle;Max_cycle;Signal;HPM_P1;HPM_P2
2022/09/06 00:01:23;;;;;;;11.85;5.57;;;19.70;99.90;;;;;;5035047;28;20080;-73
2022/09/06 00:03:49;;;;;;;6.82;5.15;;;19.70;99.90;;;;;;5035034;28;20075;-73
2022/09/06 00:06:17;;;;;;;9.32;5.47;;;19.70;99.90;;;;;;5035016;28;20056;-73
2022/09/06 00:08:44;;;;;;;14.82;5.85;;;19.70;99.90;;;;;;5034989;28;20534;-73
2022/09/06 00:11:10;;;;;;;10.10;4.97;;;19.50;99.90;;;;;;5034853;28;20558;-73
2022/09/06 00:13:36;;;;;;;14.25;5.65;;;19.50;99.90;;;;;;5035076;28;20025;-73
2022/09/06 00:16:11;;;;;;;13.02;6.22;;;19.50;99.90;;;;;;5034917;28;20039;-73
2022/09/06 00:18:36;;;;;;;10.38;5.70;;;19.40;99.90;;;;;;5034833;28;20022;-73
2022/09/06 00:21:03;;;;;;;10.40;6.25;;;19.40;99.90;;;;;;5028570;28;20071;-73
2022/09/06 00:23:29;;;;;;;13.50;6.38;;;19.40;99.90;;;;;;5014888;28;20038;-73
2022/09/06 00:26:02;;;;;;;12.30;6.50;;;19.40;99.90;;;;;;5014845;28;20033;-73
2022/09/06 00:28:27;;;;;;;13.25;7.05;;;19.40;99.90;;;;;;5028974;28;20043;-74
2022/09/06 00:30:53;;;;;;;13.32;6.82;;;19.40;99.90;;;;;;5034590;28;20665;-73
2022/09/06 00:33:18;;;;;;;12.25;7.60;;;19.30;99.90;;;;;;5054798;22;20480;-79
2022/09/06 00:35:46;;;;;;;13.32;8.48;;;19.40;99.90;;;;;;5054517;28;20031;-79
2022/09/06 00:38:12;;;;;;;12.07;9.05;;;19.40;99.90;;;;;;5050690;28;20040;-76
2022/09/06 00:40:37;;;;;;;14.82;8.93;;;19.30;99.90;;;;;;5038143;28;20361;-76
2022/09/06 00:43:03;;;;;;;10.50;8.55;;;19.20;99.90;;;;;;5057358;28;20023;-76
2022/09/06 00:45:30;;;;;;;15.90;9.15;;;19.20;99.90;;;;;;5057145;28;20048;-76
2022/09/06 00:47:58;;;;;;;16.88;8.40;;;19.20;99.90;;;;;;5057158;28;20360;-76
2022/09/06 00:50:24;;;;;;;10.73;8.50;;;19.30;99.90;;;;;;5055806;28;20070;-76
2022/09/06 00:52:51;;;;;;;8.60;7.70;;;19.30;99.90;;;;;;5037967;28;20472;-77
2022/09/06 00:55:18;;;;;;;10.15;8.15;;;19.30;99.90;;;;;;5057978;28;20033;-76
2022/09/06 00:57:45;;;;;;;9.98;7.78;;;19.30;99.90;;;;;;5056934;28;20100;-77
2022/09/06 01:00:11;;;;;;;10.77;8.05;;;19.20;99.90;;;;;;5056444;28;20025;-77
2022/09/06 01:02:36;;;;;;;9.43;8.43;;;19.20;99.90;;;;;;5057172;28;20017;-76
2022/09/06 01:05:04;;;;;;;9.43;8.48;;;19.20;99.90;;;;;;5057562;28;20032;-77
2022/09/06 01:07:52;;;;;;;12.13;9.00;;;19.20;99.90;;;;;;5055677;28;20377;-77
2022/09/06 01:10:29;;;;;;;8.70;7.90;;;19.30;99.90;;;;;;5056707;28;20074;-77
2022/09/06 01:13:33;;;;;;;10.07;9.07;;;19.30;99.90;;;;;;5056004;28;20045;-76
2022/09/06 01:16:16;;;;;;;9.63;8.73;;;19.30;99.90;;;;;;5057585;28;20021;-77
2022/09/06 01:18:56;;;;;;;10.32;9.20;;;19.30;99.90;;;;;;5058179;28;20025;-76
2022/09/06 01:21:45;;;;;;;9.90;8.90;;;19.30;99.90;;;;;;5057334;28;20552;-76
2022/09/06 01:24:46;;;;;;;11.00;9.25;;;19.20;99.90;;;;;;5056195;28;20025;-76
2022/09/06 01:27:33;;;;;;;10.35;8.75;;;19.20;99.90;;;;;;5017038;28;20037;-77
2022/09/06 01:30:07;;;;;;;12.07;9.65;;;19.20;99.90;;;;;;5054905;28;20033;-77
2022/09/06 01:32:51;;;;;;;10.27;9.25;;;19.20;99.90;;;;;;5036087;28;20057;-76
2022/09/06 01:35:32;;;;;;;10.35;8.68;;;19.20;99.90;;;;;;5037612;28;20025;-77
2022/09/06 01:37:59;;;;;;;10.05;8.77;;;19.20;99.90;;;;;;5050619;28;20021;-76
2022/09/06 01:40:26;;;;;;;9.93;9.02;;;19.20;99.90;;;;;;5054389;28;20028;-76
2022/09/06 01:42:53;;;;;;;9.93;9.02;;;19.10;99.90;;;;;;5056931;28;20021;-78
2022/09/06 01:45:25;;;;;;;11.57;8.80;;;19.10;99.90;;;;;;5057959;28;20044;-76
2022/09/06 01:48:15;;;;;;;9.82;8.48;;;19.10;99.90;;;;;;5057475;28;20021;-77
2022/09/06 01:51:03;;;;;;;13.30;9.57;;;19.20;99.90;;;;;;5016816;28;20053;-76
2022/09/06 01:54:00;;;;;;;10.07;9.18;;;19.20;99.90;;;;;;5035403;28;20148;-77
2022/09/06 01:56:50;;;;;;;11.73;9.55;;;19.10;99.90;;;;;;5052898;28;20033;-77
2022/09/06 01:59:47;;;;;;;11.73;9.50;;;19.10;99.90;;;;;;5035203;28;20033;-76
2022/09/06 02:02:34;;;;;;;10.77;9.68;;;19.10;99.90;;;;;;5047534;28;20044;-76
2022/09/06 02:05:05;;;;;;;12.48;9.52;;;19.00;99.90;;;;;;5036310;28;20038;-76
2022/09/06 02:07:33;;;;;;;12.90;9.57;;;19.00;99.90;;;;;;5034667;28;20029;-77
2022/09/06 02:10:11;;;;;;;10.85;9.10;;;19.10;99.90;;;;;;5034470;28;20044;-77
2022/09/06 02:12:40;;;;;;;12.95;9.68;;;19.00;99.90;;;;;;5035423;28;20025;-77
2022/09/06 02:15:13;;;;;;;11.10;9.52;;;19.00;99.90;;;;;;5037740;28;20071;-76
2022/09/06 02:17:43;;;;;;;10.93;9.82;;;19.00;99.90;;;;;;5055950;28;20079;-77
2022/09/06 02:20:19;;;;;;;12.40;9.85;;;19.00;99.90;;;;;;5042739;28;20104;-76
2022/09/06 02:22:47;;;;;;;10.85;9.73;;;18.90;99.90;;;;;;5035034;28;20037;-76
2022/09/06 02:25:20;;;;;;;11.27;10.27;;;18.90;99.90;;;;;;5035749;28;20087;-77
2022/09/06 02:27:45;;;;;;;11.18;9.95;;;18.90;99.90;;;;;;5053858;28;20079;-77
2022/09/06 02:30:11;;;;;;;11.60;10.05;;;18.90;99.90;;;;;;5054132;28;20029;-77
2022/09/06 02:32:44;;;;;;;10.48;9.45;;;18.90;99.90;;;;;;5055345;28;20080;-77
2022/09/06 02:35:14;;;;;;;11.77;10.63;;;18.80;99.90;;;;;;5049771;28;20160;-75
2022/09/06 02:37:41;;;;;;;11.95;10.73;;;18.80;99.90;;;;;;5051950;28;20060;-76
2022/09/06 02:40:07;;;;;;;11.20;10.00;;;18.70;99.90;;;;;;5049635;28;20045;-77
2022/09/06 02:42:38;;;;;;;11.63;10.43;;;18.70;99.90;;;;;;5052092;28;20032;-76
2022/09/06 02:45:04;;;;;;;12.23;10.52;;;18.70;99.90;;;;;;5054152;28;20048;-77
2022/09/06 02:47:29;;;;;;;15.70;10.52;;;18.70;99.90;;;;;;5053897;28;20431;-76
2022/09/06 02:49:55;;;;;;;11.48;10.07;;;18.70;99.90;;;;;;5053313;28;20021;-76
2022/09/06 02:52:21;;;;;;;11.10;10.00;;;18.80;99.90;;;;;;5052572;28;20493;-76
2022/09/06 02:54:46;;;;;;;12.82;10.50;;;18.60;99.90;;;;;;5052568;28;20021;-76
2022/09/06 02:57:12;;;;;;;11.38;10.27;;;18.70;99.90;;;;;;5048850;28;20057;-76
2022/09/06 02:59:37;;;;;;;13.45;10.40;;;18.70;99.90;;;;;;5051995;28;20595;-76
2022/09/06 03:02:03;;;;;;;11.38;10.07;;;18.60;99.90;;;;;;5036522;28;20024;-76
2022/09/06 03:04:28;;;;;;;11.98;9.75;;;18.60;99.90;;;;;;5058142;28;20064;-76
2022/09/06 03:06:55;;;;;;;11.82;10.05;;;18.60;99.90;;;;;;5057675;28;20079;-75
2022/09/06 03:09:20;;;;;;;10.93;9.77;;;18.70;99.90;;;;;;5056845;28;20155;-76
2022/09/06 03:11:46;;;;;;;11.38;10.25;;;18.60;99.90;;;;;;5056335;28;20442;-76
2022/09/06 03:14:11;;;;;;;11.73;10.63;;;18.70;99.90;;;;;;5056514;28;20029;-76
2022/09/06 03:16:37;;;;;;;12.13;10.30;;;18.60;99.90;;;;;;5057475;28;20035;-76
2022/09/06 03:19:03;;;;;;;11.52;10.30;;;18.60;99.90;;;;;;5058907;28;20060;-76
2022/09/06 03:21:28;;;;;;;12.93;10.00;;;18.60;99.90;;;;;;5057647;28;20357;-76
2022/09/06 03:23:54;;;;;;;11.07;9.98;;;18.50;99.90;;;;;;5054976;28;20117;-77
2022/09/06 03:26:19;;;;;;;12.80;10.57;;;18.50;99.90;;;;;;5045367;28;20468;-76
2022/09/06 03:28:45;;;;;;;11.98;10.77;;;18.50;99.90;;;;;;5055988;28;20467;-75
2022/09/06 03:31:11;;;;;;;14.55;10.80;;;18.50;99.90;;;;;;5048721;28;20073;-75
2022/09/06 03:33:36;;;;;;;11.80;10.60;;;18.60;99.90;;;;;;5053333;28;20048;-75
2022/09/06 03:36:03;;;;;;;12.88;10.15;;;18.50;99.90;;;;;;5059347;28;20092;-76
2022/09/06 03:38:28;;;;;;;12.38;10.57;;;18.50;99.90;;;;;;5058352;28;20108;-76
2022/09/06 03:40:54;;;;;;;13.00;10.95;;;18.40;99.90;;;;;;5054245;28;20475;-76
2022/09/06 03:43:23;;;;;;;12.13;10.82;;;18.40;99.90;;;;;;5043969;28;20041;-76
2022/09/06 03:45:51;;;;;;;11.60;10.35;;;18.40;99.90;;;;;;5056131;28;20127;-76
2022/09/06 03:48:18;;;;;;;12.18;10.98;;;18.40;99.90;;;;;;5056845;28;20041;-76
2022/09/06 03:50:48;;;;;;;12.38;11.10;;;18.40;99.90;;;;;;5056942;28;20095;-76
2022/09/06 03:53:15;;;;;;;12.05;10.82;;;18.40;99.90;;;;;;5055814;28;20040;-76
2022/09/06 03:55:44;;;;;;;11.63;10.60;;;18.40;99.90;;;;;;5048121;28;20104;-76
2022/09/06 03:58:10;;;;;;;12.15;10.57;;;18.30;99.90;;;;;;5037809;28;20476;-75
2022/09/06 04:00:36;;;;;;;12.70;11.40;;;18.30;99.90;;;;;;5018864;28;20076;-76
2022/09/06 04:03:01;;;;;;;12.73;11.45;;;18.30;99.90;;;;;;5043087;28;20025;-76
2022/09/06 04:05:27;;;;;;;14.32;11.57;;;18.30;99.90;;;;;;5040520;28;20025;-77
2022/09/06 04:07:52;;;;;;;12.73;11.35;;;18.30;99.90;;;;;;5056436;28;20024;-76
2022/09/06 04:10:18;;;;;;;13.43;12.02;;;18.30;99.90;;;;;;5054547;28;20124;-76
2022/09/06 04:12:44;;;;;;;14.10;12.60;;;18.30;99.90;;;;;;5051229;28;20017;-76
2022/09/06 04:15:10;;;;;;;13.88;12.45;;;18.30;99.90;;;;;;5047647;28;20029;-76
2022/09/06 04:17:35;;;;;;;13.23;12.00;;;18.30;99.90;;;;;;5055200;28;20144;-77
2022/09/06 04:20:01;;;;;;;13.30;12.00;;;18.20;99.90;;;;;;5055488;28;20017;-75
2022/09/06 04:22:27;;;;;;;13.77;12.48;;;18.20;99.90;;;;;;5055584;28;20048;-76
2022/09/06 04:24:52;;;;;;;13.15;11.82;;;18.20;99.90;;;;;;5055017;28;20158;-77
2022/09/06 04:27:18;;;;;;;16.77;11.40;;;18.20;99.90;;;;;;5054027;28;20033;-76
2022/09/06 04:29:44;;;;;;;12.82;11.45;;;18.10;99.90;;;;;;5053751;28;20021;-76
2022/09/06 04:32:09;;;;;;;14.07;12.63;;;18.10;99.90;;;;;;5050626;28;20040;-76
2022/09/06 04:34:35;;;;;;;11.90;10.73;;;18.00;99.90;;;;;;5035503;28;20026;-76
2022/09/06 04:37:00;;;;;;;12.68;11.52;;;18.00;99.90;;;;;;5048208;28;20028;-76
2022/09/06 04:39:26;;;;;;;12.43;10.82;;;17.90;99.90;;;;;;5055215;28;20025;-76
2022/09/06 04:41:51;;;;;;;13.05;11.85;;;17.90;99.90;;;;;;5046399;28;20029;-78
2022/09/06 04:44:17;;;;;;;13.02;11.73;;;17.80;99.90;;;;;;5035184;28;20080;-78
2022/09/06 04:46:42;;;;;;;17.55;12.20;;;17.80;99.90;;;;;;5035802;28;20053;-77
2022/09/06 04:49:08;;;;;;;15.23;12.02;;;17.80;99.90;;;;;;5044800;28;20464;-77
2022/09/06 04:51:34;;;;;;;13.52;11.57;;;17.80;99.90;;;;;;5055519;28;20022;-78
2022/09/06 04:53:59;;;;;;;15.07;11.68;;;17.90;99.90;;;;;;5054855;28;20024;-78
2022/09/06 04:56:25;;;;;;;14.55;11.65;;;17.70;99.90;;;;;;5037317;28;20021;-77
2022/09/06 04:58:53;;;;;;;13.60;12.20;;;17.70;99.90;;;;;;5035787;28;20108;-77
2022/09/06 05:01:19;;;;;;;14.23;12.65;;;17.70;99.90;;;;;;5035727;28;20567;-77
2022/09/06 05:03:45;;;;;;;13.77;12.38;;;17.90;99.90;;;;;;5044538;28;20025;-77
2022/09/06 05:06:17;;;;;;;15.15;11.43;;;17.80;99.90;;;;;;5053447;28;20021;-77
2022/09/06 05:08:42;;;;;;;13.77;12.45;;;17.90;99.90;;;;;;5040127;28;20276;-77
2022/09/06 05:11:09;;;;;;;14.63;12.15;;;17.80;99.90;;;;;;5034075;28;20033;-76
2022/09/06 05:13:36;;;;;;;14.20;12.07;;;17.70;99.90;;;;;;5033690;28;20022;-78
2022/09/06 05:16:04;;;;;;;16.40;11.70;;;17.70;99.90;;;;;;5052649;28;20099;-77
2022/09/06 05:18:30;;;;;;;12.18;10.98;;;17.70;99.90;;;;;;5052874;28;20553;-77
2022/09/06 05:20:56;;;;;;;13.10;11.80;;;17.70;99.90;;;;;;5053301;28;20163;-78
2022/09/06 05:23:22;;;;;;;13.77;12.32;;;17.70;99.90;;;;;;5052681;28;20036;-78
2022/09/06 05:25:48;;;;;;;13.27;11.98;;;17.70;99.90;;;;;;5052840;28;20021;-78
2022/09/06 05:28:15;;;;;;;15.82;13.38;;;17.60;99.90;;;;;;5051863;28;20020;-78
2022/09/06 05:30:41;;;;;;;13.82;12.48;;;17.50;99.90;;;;;;5032838;28;20036;-77
2022/09/06 05:33:08;;;;;;;14.38;12.60;;;17.50;99.90;;;;;;5032032;28;20128;-77
2022/09/06 05:35:33;;;;;;;14.57;12.80;;;17.40;99.90;;;;;;5032631;28;20059;-78
2022/09/06 05:37:59;;;;;;;16.98;13.23;;;17.50;99.90;;;;;;5033117;28;20033;-78
2022/09/06 05:40:25;;;;;;;14.02;12.52;;;17.40;99.90;;;;;;5035449;28;20021;-78
2022/09/06 05:42:50;;;;;;;13.98;12.60;;;17.40;99.90;;;;;;5027494;28;20025;-77
2022/09/06 05:45:16;;;;;;;14.13;12.63;;;17.40;99.90;;;;;;5061155;28;20033;-77
2022/09/06 05:47:42;;;;;;;13.95;12.65;;;17.40;99.90;;;;;;5062017;28;20072;-78
2022/09/06 05:50:09;;;;;;;12.98;11.68;;;17.30;99.90;;;;;;5064942;28;20063;-77
2022/09/06 05:52:35;;;;;;;13.35;11.95;;;17.30;99.90;;;;;;5063017;28;20005;-77
2022/09/06 05:55:01;;;;;;;17.30;12.55;;;17.40;99.90;;;;;;5059016;28;20017;-77
2022/09/06 05:57:27;;;;;;;12.80;11.65;;;17.40;99.90;;;;;;5067894;28;20029;-77
2022/09/06 05:59:52;;;;;;;13.77;12.48;;;17.40;99.90;;;;;;5063473;28;20032;-77
2022/09/06 06:02:19;;;;;;;13.27;11.65;;;17.50;99.90;;;;;;5064545;28;20067;-77
2022/09/06 06:04:45;;;;;;;13.00;11.70;;;17.40;99.90;;;;;;5036442;28;20038;-77
2022/09/06 06:07:11;;;;;;;13.75;12.07;;;17.40;99.90;;;;;;5032633;28;20022;-78
2022/09/06 06:09:37;;;;;;;13.55;12.25;;;17.40;99.90;;;;;;5032434;28;20022;-77
2022/09/06 06:12:02;;;;;;;13.80;12.48;;;17.50;99.90;;;;;;5046530;28;20021;-77
2022/09/06 06:14:28;;;;;;;14.23;12.35;;;17.50;99.90;;;;;;5052023;28;20032;-77
2022/09/06 06:16:53;;;;;;;14.05;12.55;;;17.60;99.90;;;;;;5052497;28;20021;-78
2022/09/06 06:19:19;;;;;;;12.63;11.43;;;17.70;99.90;;;;;;5048857;28;20093;-78
2022/09/06 06:21:44;;;;;;;12.98;11.65;;;17.80;99.90;;;;;;5032646;28;20022;-78
2022/09/06 06:24:10;;;;;;;13.45;11.75;;;17.90;99.90;;;;;;5031924;28;20026;-77
2022/09/06 06:26:36;;;;;;;13.77;11.77;;;18.20;99.90;;;;;;5031879;28;20045;-77
2022/09/06 06:29:04;;;;;;;13.82;12.32;;;18.40;99.90;;;;;;5035692;28;20442;-77
2022/09/06 06:31:31;;;;;;;14.70;11.70;;;18.40;99.90;;;;;;5050970;28;20014;-77
2022/09/06 06:33:58;;;;;;;15.93;12.52;;;18.50;99.90;;;;;;5047373;28;20017;-77
2022/09/06 06:36:26;;;;;;;14.00;12.10;;;18.50;99.90;;;;;;5042777;28;20029;-78
2022/09/06 06:38:54;;;;;;;14.13;12.02;;;18.60;99.90;;;;;;5050436;28;20009;-78
2022/09/06 06:41:23;;;;;;;15.55;11.77;;;18.50;99.90;;;;;;5039356;28;20021;-78
2022/09/06 06:43:56;;;;;;;13.93;12.52;;;18.60;99.90;;;;;;5049518;28;20017;-77
2022/09/06 06:46:24;;;;;;;14.00;12.52;;;18.60;99.90;;;;;;5051076;28;20021;-78
2022/09/06 06:48:50;;;;;;;16.85;12.55;;;18.70;99.90;;;;;;5032165;28;20421;-77
2022/09/06 06:51:19;;;;;;;14.43;11.95;;;20.30;99.90;;;;;;5038470;28;20053;-78
2022/09/06 06:53:46;;;;;;;12.90;11.47;;;24.50;99.90;;;;;;5038202;28;20083;-77
2022/09/06 06:56:18;;;;;;;12.98;10.40;;;27.50;99.90;;;;;;5051268;28;20656;-77
2022/09/06 06:58:46;;;;;;;12.50;10.68;;;30.10;99.90;;;;;;5032629;28;20013;-78
2022/09/06 07:01:12;;;;;;;11.70;10.50;;;32.10;99.90;;;;;;5050524;28;20487;-77
2022/09/06 07:03:38;;;;;;;12.02;10.80;;;33.00;99.90;;;;;;5051468;28;20033;-78
2022/09/06 07:06:04;;;;;;;14.38;10.75;;;33.60;99.90;;;;;;5051293;28;20119;-77
2022/09/06 07:08:30;;;;;;;12.18;10.00;;;33.20;99.90;;;;;;5050819;28;20074;-78
2022/09/06 07:10:55;;;;;;;10.95;9.70;;;33.90;99.90;;;;;;5051107;28;20518;-78
2022/09/06 07:13:21;;;;;;;10.52;9.55;;;33.70;99.90;;;;;;5051232;28;20031;-78
2022/09/06 07:15:46;;;;;;;11.70;9.80;;;33.80;99.90;;;;;;5051330;28;20028;-77
2022/09/06 07:18:14;;;;;;;10.55;9.07;;;33.00;99.90;;;;;;5051609;28;20082;-78
2022/09/06 07:20:40;;;;;;;11.55;10.32;;;33.10;99.90;;;;;;5051374;28;20104;-78
2022/09/06 07:23:05;;;;;;;11.85;10.82;;;32.10;99.90;;;;;;5051088;28;20104;-75
2022/09/06 07:25:31;;;;;;;11.93;10.85;;;30.40;99.90;;;;;;5050909;28;20074;-76
2022/09/06 07:28:05;;;;;;;11.02;10.02;;;29.40;99.90;;;;;;5051001;28;20025;-77
2022/09/06 07:30:33;;;;;;;10.23;9.43;;;31.30;99.90;;;;;;5050823;28;20025;-76
2022/09/06 07:32:59;;;;;;;10.65;9.65;;;32.90;99.90;;;;;;5050814;28;20137;-75
2022/09/06 07:35:26;;;;;;;11.70;10.57;;;35.70;99.90;;;;;;5051058;28;20398;-76
2022/09/06 07:37:53;;;;;;;10.98;10.07;;;34.50;99.90;;;;;;5050965;28;20025;-76
2022/09/06 07:40:19;;;;;;;12.02;10.85;;;36.00;99.90;;;;;;5050936;28;20109;-75
2022/09/06 07:42:44;;;;;;;11.73;10.52;;;35.20;99.70;;;;;;5033291;28;20120;-76
2022/09/06 07:45:10;;;;;;;10.52;9.57;;;35.90;97.50;;;;;;5035509;28;20523;-76
2022/09/06 07:47:36;;;;;;;10.70;9.70;;;39.50;94.80;;;;;;5031146;28;20032;-76
2022/09/06 07:50:02;;;;;;;10.90;9.90;;;38.90;90.70;;;;;;5053068;28;20032;-76
2022/09/06 07:52:28;;;;;;;11.57;10.50;;;41.50;84.50;;;;;;5054706;28;20432;-76
2022/09/06 07:54:55;;;;;;;11.00;9.93;;;38.80;79.10;;;;;;5036536;28;20119;-76
2022/09/06 07:57:22;;;;;;;11.85;10.75;;;41.50;77.60;;;;;;5055014;28;20060;-76
2022/09/06 07:59:47;;;;;;;10.77;9.95;;;41.10;69.30;;;;;;5054387;28;20049;-76
2022/09/06 08:02:14;;;;;;;11.35;10.48;;;42.20;67.20;;;;;;5054460;28;20122;-76
2022/09/06 08:04:40;;;;;;;11.10;10.00;;;42.10;60.90;;;;;;5036658;28;20475;-76
2022/09/06 08:07:06;;;;;;;11.20;10.23;;;42.50;59.70;;;;;;5054849;28;20013;-76
2022/09/06 08:09:31;;;;;;;11.43;10.32;;;40.30;60.00;;;;;;5053971;28;20024;-76
2022/09/06 08:11:57;;;;;;;10.65;9.85;;;42.00;58.10;;;;;;5036612;28;20026;-76
2022/09/06 08:14:23;;;;;;;11.63;10.48;;;42.80;55.80;;;;;;5033982;28;20040;-76
2022/09/06 08:16:49;;;;;;;12.18;11.18;;;42.50;56.40;;;;;;5016529;28;20026;-77
2022/09/06 08:19:14;;;;;;;12.00;10.57;;;40.30;49.20;;;;;;5034829;28;20021;-77
2022/09/06 08:21:40;;;;;;;10.75;9.85;;;41.70;51.40;;;;;;5033806;28;20515;-77
2022/09/06 08:24:11;;;;;;;10.70;9.82;;;38.90;49.80;;;;;;5033020;28;20423;-76
2022/09/06 08:26:44;;;;;;;11.05;9.95;;;39.00;54.60;;;;;;5033323;28;20029;-77
2022/09/06 08:29:10;;;;;;;10.82;9.93;;;38.60;52.20;;;;;;5033615;28;20018;-76
2022/09/06 08:31:42;;;;;;;10.70;9.75;;;39.40;54.30;;;;;;5033347;28;20464;-76
2022/09/06 08:34:08;;;;;;;11.90;9.77;;;38.20;51.80;;;;;;5039382;28;20115;-76
2022/09/06 08:36:34;;;;;;;10.82;9.93;;;33.40;56.30;;;;;;5045657;28;20032;-77
2022/09/06 08:39:02;;;;;;;10.95;9.75;;;32.10;65.10;;;;;;5042370;28;20083;-75
2022/09/06 08:41:37;;;;;;;11.95;10.88;;;34.10;64.40;;;;;;5036100;28;20029;-77
2022/09/06 08:44:09;;;;;;;11.13;10.10;;;36.00;64.10;;;;;;5046976;28;20029;-77
2022/09/06 08:46:44;;;;;;;11.73;10.57;;;36.50;62.00;;;;;;5050525;28;20124;-77
2022/09/06 08:49:10;;;;;;;11.63;10.40;;;38.60;60.90;;;;;;5052254;28;20090;-77
2022/09/06 08:51:47;;;;;;;11.15;10.15;;;38.70;58.50;;;;;;5053287;28;20456;-77
2022/09/06 08:54:33;;;;;;;12.43;10.30;;;40.90;56.30;;;;;;5050740;28;20104;-77
2022/09/06 08:57:34;;;;;;;11.57;10.45;;;38.30;52.80;;;;;;5006675;28;20063;-77
2022/09/06 09:00:06;;;;;;;11.43;10.35;;;39.90;54.30;;;;;;5034963;28;20540;-77
2022/09/06 09:02:42;;;;;;;11.25;10.35;;;39.50;51.90;;;;;;5034803;28;20017;-77
2022/09/06 09:05:21;;;;;;;10.57;9.35;;;38.50;50.30;;;;;;5033289;28;20495;-77
2022/09/06 09:08:17;;;;;;;10.90;9.93;;;35.90;51.80;;;;;;5041083;28;20047;-77
2022/09/06 09:10:50;;;;;;;12.25;10.18;;;32.90;55.10;;;;;;5045928;28;20063;-77
2022/09/06 09:13:51;;;;;;;10.57;9.77;;;30.30;61.00;;;;;;5053701;28;20379;-77
2022/09/06 09:16:16;;;;;;;11.32;9.73;;;28.80;69.80;;;;;;5007304;28;20494;-76
2022/09/06 09:18:56;;;;;;;10.88;9.75;;;33.50;72.80;;;;;;5053164;28;20025;-77
2022/09/06 09:21:23;;;;;;;11.35;10.30;;;37.60;66.90;;;;;;5053033;28;20502;-77
2022/09/06 09:23:54;;;;;;;12.45;10.10;;;37.10;59.40;;;;;;5039583;28;20087;-77
2022/09/06 09:26:22;;;;;;;10.15;9.25;;;35.70;59.80;;;;;;5032553;28;20022;-78
2022/09/06 09:29:09;;;;;;;11.18;10.07;;;37.80;60.00;;;;;;5033356;28;20057;-76
2022/09/06 09:31:38;;;;;;;10.90;9.80;;;36.20;56.90;;;;;;5045145;28;20475;-77
2022/09/06 09:34:04;;;;;;;10.50;9.50;;;37.50;59.60;;;;;;5052998;28;20382;-77
2022/09/06 09:36:31;;;;;;;10.50;9.60;;;37.70;55.50;;;;;;5052517;28;20464;-76
2022/09/06 09:38:57;;;;;;;9.32;8.48;;;38.60;56.20;;;;;;5052870;28;20028;-77
2022/09/06 09:41:28;;;;;;;9.65;8.95;;;37.50;54.00;;;;;;5052689;28;20020;-76
2022/09/06 09:43:57;;;;;;;10.35;9.30;;;37.60;53.70;;;;;;5052869;28;20116;-77
2022/09/06 09:46:23;;;;;;;9.80;8.90;;;36.70;58.30;;;;;;5052384;28;20021;-76
2022/09/06 09:49:04;;;;;;;11.77;10.60;;;35.90;54.30;;;;;;5049358;28;20082;-77
2022/09/06 09:51:42;;;;;;;11.23;10.25;;;37.30;54.70;;;;;;5052432;28;20021;-77
2022/09/06 09:54:10;;;;;;;11.32;10.02;;;38.90;54.40;;;;;;5052151;28;20017;-76
2022/09/06 09:56:56;;;;;;;12.90;10.70;;;38.30;51.90;;;;;;5051973;28;20021;-77
2022/09/06 09:59:36;;;;;;;11.85;10.60;;;37.30;53.60;;;;;;5042371;28;20136;-76
2022/09/06 10:02:34;;;;;;;10.70;9.60;;;39.70;52.60;;;;;;5032239;28;20403;-77
2022/09/06 10:05:17;;;;;;;11.48;10.48;;;39.10;51.40;;;;;;5032647;28;20395;-77
2022/09/06 10:07:53;;;;;;;11.38;10.38;;;38.80;52.20;;;;;;5040390;28;20025;-80
2022/09/06 10:10:24;;;;;;;10.10;9.13;;;38.60;48.50;;;;;;5052197;28;20029;-78
2022/09/06 10:13:07;;;;;;;10.73;9.82;;;39.60;51.10;;;;;;5047393;28;20101;-79
2022/09/06 10:15:34;;;;;;;11.85;10.75;;;38.80;48.80;;;;;;5032178;28;20053;-79
2022/09/06 10:18:00;;;;;;;10.63;9.57;;;35.90;47.00;;;;;;5031914;28;20447;-80
2022/09/06 10:20:44;;;;;;;10.98;9.98;;;37.50;50.20;;;;;;5031548;28;20063;-79
2022/09/06 10:23:17;;;;;;;11.57;10.55;;;39.60;49.50;;;;;;5031720;28;20034;-79
2022/09/06 10:26:03;;;;;;;11.68;10.57;;;39.60;47.60;;;;;;5031681;28;20028;-80
2022/09/06 10:28:38;;;;;;;11.68;10.57;;;37.40;47.80;;;;;;5031410;28;20367;-77
2022/09/06 10:31:42;;;;;;;11.35;10.35;;;38.00;46.60;;;;;;5031951;28;20071;-77
2022/09/06 10:34:32;;;;;;;11.68;10.50;;;34.60;46.60;;;;;;5032096;28;20037;-76
2022/09/06 10:37:22;;;;;;;11.25;10.32;;;30.80;54.20;;;;;;5033006;28;20384;-76
2022/09/06 10:40:09;;;;;;;10.57;9.68;;;31.80;61.30;;;;;;5051297;28;20028;-77
2022/09/06 10:42:52;;;;;;;9.48;8.68;;;35.70;59.30;;;;;;5050778;28;20044;-76
2022/09/06 10:45:41;;;;;;;13.65;12.52;;;37.60;56.40;;;;;;5046151;28;20053;-78
2022/09/06 10:48:34;;;;;;;11.68;10.65;;;35.40;55.40;;;;;;5049740;28;20029;-78
2022/09/06 10:51:33;;;;;;;10.45;9.50;;;36.50;56.40;;;;;;5044108;28;20699;-78
2022/09/06 10:54:09;;;;;;;11.10;10.00;;;37.60;55.60;;;;;;5031570;28;20108;-77
2022/09/06 10:56:52;;;;;;;11.93;10.82;;;36.20;53.90;;;;;;5031192;28;20476;-78
2022/09/06 10:59:45;;;;;;;10.07;9.07;;;33.50;55.60;;;;;;5048763;28;20099;-77
2022/09/06 11:02:17;;;;;;;10.23;9.23;;;30.90;56.70;;;;;;5040654;28;20021;-78
2022/09/06 11:04:44;;;;;;;11.77;10.68;;;31.80;58.70;;;;;;5047342;28;20127;-78
2022/09/06 11:07:29;;;;;;;11.75;10.55;;;29.60;59.50;;;;;;5041994;28;20519;-78
2022/09/06 11:10:23;;;;;;;9.52;8.70;;;30.30;62.40;;;;;;5030848;28;20025;-78
2022/09/06 11:12:57;;;;;;;11.60;10.50;;;30.80;63.90;;;;;;5040320;28;20033;-78
2022/09/06 11:15:28;;;;;;;9.80;8.82;;;30.00;63.00;;;;;;5048228;28;20032;-78
2022/09/06 11:18:26;;;;;;;9.30;8.40;;;31.00;65.60;;;;;;5050870;28;20631;-79
2022/09/06 11:21:03;;;;;;;12.63;11.38;;;30.70;65.40;;;;;;5048012;28;20061;-78
2022/09/06 11:23:39;;;;;;;11.60;10.40;;;30.00;65.30;;;;;;5056141;28;20045;-79
2022/09/06 11:26:04;;;;;;;11.80;10.68;;;30.60;68.20;;;;;;5055361;28;20565;-78
2022/09/06 11:28:38;;;;;;;10.88;9.88;;;29.90;67.40;;;;;;5055199;28;20112;-79
2022/09/06 11:31:07;;;;;;;12.00;10.05;;;29.70;69.20;;;;;;5055183;28;20451;-79
2022/09/06 11:33:38;;;;;;;11.98;10.00;;;29.20;70.10;;;;;;5055774;28;20049;-80
2022/09/06 11:36:30;;;;;;;9.48;8.48;;;29.50;71.50;;;;;;5056258;28;20550;-78
2022/09/06 11:38:59;;;;;;;9.48;8.48;;;29.10;73.20;;;;;;5055405;28;20112;-79
2022/09/06 11:41:34;;;;;;;10.73;8.40;;;30.20;74.40;;;;;;5036863;28;20029;-78
2022/09/06 11:44:00;;;;;;;9.13;8.18;;;30.30;71.60;;;;;;5034557;28;20345;-79
2022/09/06 11:46:34;;;;;;;10.70;9.32;;;30.00;72.80;;;;;;5034819;28;20021;-79
2022/09/06 11:49:07;;;;;;;9.70;7.82;;;29.50;73.50;;;;;;5041852;28;20052;-78
2022/09/06 11:51:43;;;;;;;9.13;7.55;;;29.40;74.40;;;;;;5053246;28;20072;-78
2022/09/06 11:54:17;;;;;;;7.65;6.95;;;29.80;75.90;;;;;;5034737;28;20026;-79
2022/09/06 11:56:46;;;;;;;7.82;7.07;;;30.30;75.60;;;;;;5036673;28;20038;-78
2022/09/06 11:59:17;;;;;;;8.35;6.97;;;29.70;73.70;;;;;;5041821;28;20049;-78
2022/09/06 12:02:05;;;;;;;9.88;8.32;;;29.00;75.60;;;;;;5043779;28;20021;-78
2022/09/06 12:05:06;;;;;;;7.07;6.47;;;28.90;75.50;;;;;;5037120;28;20034;-77
2022/09/06 12:07:33;;;;;;;6.38;5.78;;;28.60;78.50;;;;;;4999842;28;20514;-77
2022/09/06 12:10:30;;;;;;;5.07;4.43;;;29.00;79.40;;;;;;5023752;28;20562;-78
2022/09/06 12:12:56;;;;;;;5.00;3.88;;;29.20;78.70;;;;;;5042906;28;20025;-79
2022/09/06 12:15:28;;;;;;;3.92;3.55;;;29.40;78.00;;;;;;5043407;28;20048;-79
2022/09/06 12:17:54;;;;;;;4.82;3.60;;;29.30;77.90;;;;;;5033987;28;20026;-79
2022/09/06 12:20:50;;;;;;;4.97;3.30;;;30.00;78.60;;;;;;5044141;28;20052;-79
2022/09/06 12:23:33;;;;;;;3.47;2.95;;;31.40;76.00;;;;;;5045455;28;20021;-78
2022/09/06 12:26:00;;;;;;;3.80;3.47;;;32.30;74.60;;;;;;5042241;28;20025;-79
2022/09/06 12:28:46;;;;;;;5.53;4.13;;;32.60;70.90;;;;;;5045711;28;20079;-79
2022/09/06 12:31:35;;;;;;;5.93;3.75;;;32.10;69.60;;;;;;5034238;28;20029;-79
2022/09/06 12:34:07;;;;;;;6.07;4.40;;;31.70;70.80;;;;;;5038802;28;20049;-78
2022/09/06 12:36:33;;;;;;;4.72;3.85;;;31.20;71.10;;;;;;5035503;28;20076;-78
2022/09/06 12:39:10;;;;;;;4.75;3.88;;;30.90;72.00;;;;;;5039406;28;20049;-78
2022/09/06 12:41:49;;;;;;;8.20;4.85;;;31.10;73.10;;;;;;5038141;28;20076;-77
2022/09/06 12:44:17;;;;;;;5.57;3.92;;;31.40;73.40;;;;;;5053337;28;20360;-78
2022/09/06 12:46:48;;;;;;;5.45;3.10;;;31.40;74.00;;;;;;5052355;28;20108;-78
2022/09/06 12:49:16;;;;;;;4.05;3.15;;;31.20;74.60;;;;;;5033917;28;20017;-79
2022/09/06 12:51:42;;;;;;;4.78;4.03;;;31.20;74.00;;;;;;5033788;28;20421;-80
2022/09/06 12:54:25;;;;;;;4.78;3.55;;;31.20;74.30;;;;;;5033508;28;20056;-79